sensor_id;sensor_type;location;lat;lon;timestamp;pressure;altitude;pressure_sealevel;temperature;humidity
51287;BME280;37364;46.974;18.916;2023-06-04T00:01:30;154292.72;;;15.63;65.89
51287;BME280;37364;46.974;18.916;2023-06-04T00:04:00;154294.00;;;15.64;65.48
51287;BME280;37364;46.974;18.916;2023-06-04T00:06:30;154300.53;;;15.67;65.95
51287;BME280;37364;46.974;18.916;2023-06-04T00:09:03;154291.44;;;15.63;65.64
51287;BME280;37364;46.974;18.916;2023-06-04T00:11:33;154283.63;;;15.60;67.08
51287;BME280;37364;46.974;18.916;2023-06-04T00:14:05;154270.66;;;15.55;67.09
51287;BME280;37364;46.974;18.916;2023-06-04T00:16:36;154252.47;;;15.48;66.80
51287;BME280;37364;46.974;18.916;2023-06-04T00:19:08;154248.53;;;15.46;67.63
51287;BME280;37364;46.974;18.916;2023-06-04T00:21:38;154245.97;;;15.45;67.52
51287;BME280;37364;46.974;18.916;2023-06-04T00:24:11;154229.06;;;15.38;68.77
51287;BME280;37364;46.974;18.916;2023-06-04T00:26:42;154225.19;;;15.37;68.42
51287;BME280;37364;46.974;18.916;2023-06-04T00:29:12;154240.78;;;15.43;66.39
51287;BME280;37364;46.974;18.916;2023-06-04T00:31:43;154223.88;;;15.36;68.70
51287;BME280;37364;46.974;18.916;2023-06-04T00:34:13;154207.00;;;15.30;70.01
51287;BME280;37364;46.974;18.916;2023-06-04T00:36:46;154212.19;;;15.32;70.56
51287;BME280;37364;46.974;18.916;2023-06-04T00:39:19;154207.00;;;15.30;69.83
51287;BME280;37364;46.974;18.916;2023-06-04T00:41:49;154196.63;;;15.26;69.40
51287;BME280;37364;46.974;18.916;2023-06-04T00:44:19;154181.03;;;15.19;66.63
51287;BME280;37364;46.974;18.916;2023-06-04T00:46:52;154178.41;;;15.18;68.28
51287;BME280;37364;46.974;18.916;2023-06-04T00:49:23;154177.13;;;15.18;69.27
51287;BME280;37364;46.974;18.916;2023-06-04T00:51:54;154179.69;;;15.19;68.04
51287;BME280;37364;46.974;18.916;2023-06-04T00:54:27;154162.84;;;15.12;69.17
51287;BME280;37364;46.974;18.916;2023-06-04T00:56:59;154145.97;;;15.06;71.28
51287;BME280;37364;46.974;18.916;2023-06-04T00:59:31;154152.44;;;15.08;70.06
51287;BME280;37364;46.974;18.916;2023-06-04T01:02:06;154140.78;;;15.03;67.53
51287;BME280;37364;46.974;18.916;2023-06-04T01:04:44;154156.34;;;15.10;68.11
51287;BME280;37364;46.974;18.916;2023-06-04T01:07:16;154130.38;;;14.99;67.02
51287;BME280;37364;46.974;18.916;2023-06-04T01:09:50;154132.97;;;15.00;67.95
51287;BME280;37364;46.974;18.916;2023-06-04T01:12:21;154132.97;;;15.00;68.99
51287;BME280;37364;46.974;18.916;2023-06-04T01:14:51;154122.59;;;14.96;69.15
51287;BME280;37364;46.974;18.916;2023-06-04T01:17:25;154114.75;;;14.93;69.12
51287;BME280;37364;46.974;18.916;2023-06-04T01:20:22;154114.75;;;14.93;69.60
51287;BME280;37364;46.974;18.916;2023-06-04T01:23:12;154121.28;;;14.96;70.31
51287;BME280;37364;46.974;18.916;2023-06-04T01:25:48;154125.16;;;14.97;70.52
51287;BME280;37364;46.974;18.916;2023-06-04T01:28:19;154119.97;;;14.95;69.72
51287;BME280;37364;46.974;18.916;2023-06-04T01:30:50;154112.19;;;14.92;70.00
51287;BME280;37364;46.974;18.916;2023-06-04T01:33:23;154112.19;;;14.92;69.68
51287;BME280;37364;46.974;18.916;2023-06-04T01:35:54;154105.72;;;14.90;69.83
51287;BME280;37364;46.974;18.916;2023-06-04T01:38:24;154101.81;;;14.88;70.49
51287;BME280;37364;46.974;18.916;2023-06-04T01:40:57;154100.47;;;14.88;71.09
51287;BME280;37364;46.974;18.916;2023-06-04T01:43:28;154086.22;;;14.82;69.70
51287;BME280;37364;46.974;18.916;2023-06-04T01:46:02;154073.22;;;14.77;72.29
51287;BME280;37364;46.974;18.916;2023-06-04T01:48:33;154094.00;;;14.85;70.16
51287;BME280;37364;46.974;18.916;2023-06-04T01:51:03;154081.03;;;14.80;70.88
51287;BME280;37364;46.974;18.916;2023-06-04T01:53:34;154082.34;;;14.80;71.72
51287;BME280;37364;46.974;18.916;2023-06-04T01:56:07;154077.13;;;14.78;70.80
51287;BME280;37364;46.974;18.916;2023-06-04T01:58:38;154079.72;;;14.79;72.14
51287;BME280;37364;46.974;18.916;2023-06-04T02:01:09;154083.63;;;14.81;69.18
51287;BME280;37364;46.974;18.916;2023-06-04T02:03:39;154075.84;;;14.78;71.30
51287;BME280;37364;46.974;18.916;2023-06-04T02:06:10;154048.56;;;14.67;72.46
51287;BME280;37364;46.974;18.916;2023-06-04T02:08:40;154038.19;;;14.63;72.36
51287;BME280;37364;46.974;18.916;2023-06-04T02:11:13;154030.38;;;14.60;72.70
51287;BME280;37364;46.974;18.916;2023-06-04T02:13:43;154030.38;;;14.60;72.77
51287;BME280;37364;46.974;18.916;2023-06-04T02:16:13;154016.03;;;14.54;73.89
51287;BME280;37364;46.974;18.916;2023-06-04T02:18:44;154010.84;;;14.52;72.09
51287;BME280;37364;46.974;18.916;2023-06-04T02:21:14;153991.41;;;14.44;72.57
51287;BME280;37364;46.974;18.916;2023-06-04T02:23:45;153986.19;;;14.42;73.89
51287;BME280;37364;46.974;18.916;2023-06-04T02:26:18;153956.31;;;14.31;72.84
51287;BME280;37364;46.974;18.916;2023-06-04T02:28:49;153929.09;;;14.20;74.19
51287;BME280;37364;46.974;18.916;2023-06-04T02:31:19;153897.94;;;14.08;75.01
51287;BME280;37364;46.974;18.916;2023-06-04T02:33:50;153910.91;;;14.13;73.77
51287;BME280;37364;46.974;18.916;2023-06-04T02:36:20;153914.81;;;14.14;73.02
51287;BME280;37364;46.974;18.916;2023-06-04T02:38:50;153886.22;;;14.03;75.42
51287;BME280;37364;46.974;18.916;2023-06-04T02:41:23;153870.66;;;13.97;77.17
51287;BME280;37364;46.974;18.916;2023-06-04T02:43:54;153878.47;;;14.00;75.61
51287;BME280;37364;46.974;18.916;2023-06-04T02:46:24;153881.03;;;14.01;78.10
51287;BME280;37364;46.974;18.916;2023-06-04T02:48:54;153866.75;;;13.95;79.54
51287;BME280;37364;46.974;18.916;2023-06-04T02:51:25;153884.94;;;14.02;78.15
51287;BME280;37364;46.974;18.916;2023-06-04T02:53:55;153901.81;;;14.09;78.59
51287;BME280;37364;46.974;18.916;2023-06-04T02:56:28;153886.22;;;14.03;79.45
51287;BME280;37364;46.974;18.916;2023-06-04T02:58:59;153871.94;;;13.97;81.34
51287;BME280;37364;46.974;18.916;2023-06-04T03:01:30;153829.16;;;13.80;82.86
51287;BME280;37364;46.974;18.916;2023-06-04T03:04:01;153847.28;;;13.88;83.91
51287;BME280;37364;46.974;18.916;2023-06-04T03:06:34;153826.53;;;13.79;86.19
51287;BME280;37364;46.974;18.916;2023-06-04T03:09:05;153822.63;;;13.78;87.05
51287;BME280;37364;46.974;18.916;2023-06-04T03:11:38;153813.59;;;13.74;88.64
51287;BME280;37364;46.974;18.916;2023-06-04T03:14:08;153803.22;;;13.70;89.38
51287;BME280;37364;46.974;18.916;2023-06-04T03:16:38;153786.31;;;13.63;91.32
51287;BME280;37364;46.974;18.916;2023-06-04T03:19:09;153782.41;;;13.62;93.20
51287;BME280;37364;46.974;18.916;2023-06-04T03:21:40;153782.41;;;13.62;92.96
51287;BME280;37364;46.974;18.916;2023-06-04T03:24:12;153782.41;;;13.62;92.09
51287;BME280;37364;46.974;18.916;2023-06-04T03:26:45;153746.09;;;13.48;93.28
51287;BME280;37364;46.974;18.916;2023-06-04T03:29:16;153757.78;;;13.52;93.33
51287;BME280;37364;46.974;18.916;2023-06-04T03:31:47;153782.41;;;13.62;95.74
51287;BME280;37364;46.974;18.916;2023-06-04T03:34:18;153770.75;;;13.57;95.29
51287;BME280;37364;46.974;18.916;2023-06-04T03:36:52;153761.66;;;13.54;94.88
51287;BME280;37364;46.974;18.916;2023-06-04T03:39:22;153781.13;;;13.61;95.07
51287;BME280;37364;46.974;18.916;2023-06-04T03:41:56;153773.38;;;13.58;94.72
51287;BME280;37364;46.974;18.916;2023-06-04T03:44:28;153747.38;;;13.48;95.50
51287;BME280;37364;46.974;18.916;2023-06-04T03:46:59;153775.94;;;13.59;95.82
51287;BME280;37364;46.974;18.916;2023-06-04T03:49:30;153760.38;;;13.53;97.03
51287;BME280;37364;46.974;18.916;2023-06-04T03:52:00;153779.84;;;13.61;97.38
51287;BME280;37364;46.974;18.916;2023-06-04T03:54:31;153798.03;;;13.68;97.50
51287;BME280;37364;46.974;18.916;2023-06-04T03:57:04;153798.03;;;13.68;94.64
51287;BME280;37364;46.974;18.916;2023-06-04T03:59:35;153813.59;;;13.74;94.89
51287;BME280;37364;46.974;18.916;2023-06-04T04:02:06;153821.34;;;13.77;92.05
51287;BME280;37364;46.974;18.916;2023-06-04T04:04:39;153847.28;;;13.88;91.90
51287;BME280;37364;46.974;18.916;2023-06-04T04:07:09;153821.34;;;13.77;90.26
51287;BME280;37364;46.974;18.916;2023-06-04T04:09:40;153833.06;;;13.82;91.42
51287;BME280;37364;46.974;18.916;2023-06-04T04:12:13;153855.09;;;13.91;92.18
51287;BME280;37364;46.974;18.916;2023-06-04T04:14:43;153881.03;;;14.01;92.77
51287;BME280;37364;46.974;18.916;2023-06-04T04:17:14;153878.47;;;14.00;90.84
51287;BME280;37364;46.974;18.916;2023-06-04T04:19:45;153896.63;;;14.07;90.54
51287;BME280;37364;46.974;18.916;2023-06-04T04:22:16;153927.78;;;14.19;90.22
51287;BME280;37364;46.974;18.916;2023-06-04T04:24:48;153920.00;;;14.16;91.62
51287;BME280;37364;46.974;18.916;2023-06-04T04:27:21;153939.47;;;14.24;86.91
51287;BME280;37364;46.974;18.916;2023-06-04T04:29:52;153920.00;;;14.16;87.03
51287;BME280;37364;46.974;18.916;2023-06-04T04:32:29;153927.78;;;14.19;87.85
51287;BME280;37364;46.974;18.916;2023-06-04T04:34:59;153908.31;;;14.12;90.00
51287;BME280;37364;46.974;18.916;2023-06-04T04:37:35;153925.19;;;14.18;90.10
51287;BME280;37364;46.974;18.916;2023-06-04T04:40:08;153936.91;;;14.23;90.27
51287;BME280;37364;46.974;18.916;2023-06-04T04:42:44;153953.75;;;14.30;92.55
51287;BME280;37364;46.974;18.916;2023-06-04T04:45:17;153943.38;;;14.26;91.12
51287;BME280;37364;46.974;18.916;2023-06-04T04:47:50;153936.91;;;14.23;93.99
51287;BME280;37364;46.974;18.916;2023-06-04T04:50:21;153931.66;;;14.21;90.42
51287;BME280;37364;46.974;18.916;2023-06-04T04:52:51;153938.19;;;14.23;92.16
51287;BME280;37364;46.974;18.916;2023-06-04T04:55:23;153922.59;;;14.17;89.82
51287;BME280;37364;46.974;18.916;2023-06-04T04:57:56;153918.72;;;14.16;91.10
51287;BME280;37364;46.974;18.916;2023-06-04T05:00:27;153929.09;;;14.20;92.24
51287;BME280;37364;46.974;18.916;2023-06-04T05:02:57;153947.28;;;14.27;92.07
51287;BME280;37364;46.974;18.916;2023-06-04T05:05:28;153957.66;;;14.31;89.50
51287;BME280;37364;46.974;18.916;2023-06-04T05:07:59;153922.59;;;14.17;87.39
51287;BME280;37364;46.974;18.916;2023-06-04T05:10:34;153910.91;;;14.13;88.34
51287;BME280;37364;46.974;18.916;2023-06-04T05:13:09;153930.38;;;14.20;91.08
51287;BME280;37364;46.974;18.916;2023-06-04T05:15:49;153943.38;;;14.26;90.70
51287;BME280;37364;46.974;18.916;2023-06-04T05:18:23;153930.38;;;14.20;89.41
51287;BME280;37364;46.974;18.916;2023-06-04T05:20:59;153948.56;;;14.28;90.13
51287;BME280;37364;46.974;18.916;2023-06-04T05:23:34;153940.75;;;14.24;88.61
51287;BME280;37364;46.974;18.916;2023-06-04T05:26:05;153966.75;;;14.35;89.46
51287;BME280;37364;46.974;18.916;2023-06-04T05:28:39;153977.13;;;14.39;88.97
51287;BME280;37364;46.974;18.916;2023-06-04T05:31:12;154000.47;;;14.48;92.66
51287;BME280;37364;46.974;18.916;2023-06-04T05:33:46;153999.19;;;14.48;91.38
51287;BME280;37364;46.974;18.916;2023-06-04T05:36:19;154016.03;;;14.54;91.04
51287;BME280;37364;46.974;18.916;2023-06-04T05:38:54;153983.59;;;14.41;91.54
51287;BME280;37364;46.974;18.916;2023-06-04T05:41:48;154038.19;;;14.63;93.76
51287;BME280;37364;46.974;18.916;2023-06-04T05:44:22;154062.84;;;14.73;94.35
51287;BME280;37364;46.974;18.916;2023-06-04T05:46:52;154099.19;;;14.87;94.88
51287;BME280;37364;46.974;18.916;2023-06-04T05:49:22;154113.47;;;14.93;94.85
51287;BME280;37364;46.974;18.916;2023-06-04T05:51:56;154131.69;;;15.00;95.21
51287;BME280;37364;46.974;18.916;2023-06-04T05:54:26;154135.59;;;15.01;95.77
51287;BME280;37364;46.974;18.916;2023-06-04T05:56:57;154131.69;;;15.00;93.33
51287;BME280;37364;46.974;18.916;2023-06-04T05:59:30;154149.81;;;15.07;97.29
51287;BME280;37364;46.974;18.916;2023-06-04T06:02:03;154107.00;;;14.90;93.49
51287;BME280;37364;46.974;18.916;2023-06-04T06:04:35;154153.72;;;15.09;94.04
51287;BME280;37364;46.974;18.916;2023-06-04T06:07:06;154131.69;;;15.00;94.17
51287;BME280;37364;46.974;18.916;2023-06-04T06:09:36;154086.22;;;14.82;91.98
51287;BME280;37364;46.974;18.916;2023-06-04T06:12:07;154144.63;;;15.05;94.02
51287;BME280;37364;46.974;18.916;2023-06-04T06:14:42;154140.78;;;15.03;94.96
51287;BME280;37364;46.974;18.916;2023-06-04T06:17:12;154204.38;;;15.29;98.61
51287;BME280;37364;46.974;18.916;2023-06-04T06:19:43;154238.16;;;15.42;97.20
51287;BME280;37364;46.974;18.916;2023-06-04T06:22:14;154227.78;;;15.38;95.16
51287;BME280;37364;46.974;18.916;2023-06-04T06:24:44;154200.53;;;15.27;95.96
51287;BME280;37364;46.974;18.916;2023-06-04T06:27:15;154260.28;;;15.51;95.55
51287;BME280;37364;46.974;18.916;2023-06-04T06:29:48;154313.50;;;15.72;95.69
51287;BME280;37364;46.974;18.916;2023-06-04T06:32:19;154312.22;;;15.71;97.58
51287;BME280;37364;46.974;18.916;2023-06-04T06:34:49;154368.13;;;15.93;100.00
51287;BME280;37364;46.974;18.916;2023-06-04T06:37:19;154400.63;;;16.06;97.19
51287;BME280;37364;46.974;18.916;2023-06-04T06:39:50;154444.81;;;16.24;92.30
51287;BME280;37364;46.974;18.916;2023-06-04T06:42:20;154486.41;;;16.40;90.56
51287;BME280;37364;46.974;18.916;2023-06-04T06:44:54;154431.81;;;16.18;88.30
51287;BME280;37364;46.974;18.916;2023-06-04T06:47:41;154483.81;;;16.39;92.34
51287;BME280;37364;46.974;18.916;2023-06-04T06:50:16;154593.09;;;16.82;91.00
51287;BME280;37364;46.974;18.916;2023-06-04T06:52:51;154600.84;;;16.85;89.00
51287;BME280;37364;46.974;18.916;2023-06-04T06:55:25;154632.09;;;16.97;88.90
51287;BME280;37364;46.974;18.916;2023-06-04T06:58:03;154684.09;;;17.18;89.04
51287;BME280;37364;46.974;18.916;2023-06-04T07:00:47;154758.22;;;17.47;87.02
51287;BME280;37364;46.974;18.916;2023-06-04T07:03:21;154824.56;;;17.73;86.63
51287;BME280;37364;46.974;18.916;2023-06-04T07:05:57;154885.78;;;17.97;86.96
51287;BME280;37364;46.974;18.916;2023-06-04T07:08:28;154911.81;;;18.08;84.44
51287;BME280;37364;46.974;18.916;2023-06-04T07:11:10;154962.53;;;18.28;83.76
51287;BME280;37364;46.974;18.916;2023-06-04T07:13:42;154945.66;;;18.21;81.80
51287;BME280;37364;46.974;18.916;2023-06-04T07:16:15;154903.97;;;18.05;82.65
51287;BME280;37364;46.974;18.916;2023-06-04T07:18:47;154937.81;;;18.18;81.82
51287;BME280;37364;46.974;18.916;2023-06-04T07:21:25;154978.16;;;18.34;79.70
51287;BME280;37364;46.974;18.916;2023-06-04T07:24:01;155025.03;;;18.52;82.07
51287;BME280;37364;46.974;18.916;2023-06-04T07:26:34;154980.78;;;18.35;81.15
51287;BME280;37364;46.974;18.916;2023-06-04T07:29:05;155018.50;;;18.50;85.15
51287;BME280;37364;46.974;18.916;2023-06-04T07:31:51;155051.06;;;18.63;80.04
51287;BME280;37364;46.974;18.916;2023-06-04T07:34:26;155064.06;;;18.68;80.18
51287;BME280;37364;46.974;18.916;2023-06-04T07:36:58;155091.41;;;18.78;80.83
51287;BME280;37364;46.974;18.916;2023-06-04T07:39:31;155066.66;;;18.69;80.64
51287;BME280;37364;46.974;18.916;2023-06-04T07:42:02;154901.41;;;18.04;74.31
51287;BME280;37364;46.974;18.916;2023-06-04T07:44:32;154966.47;;;18.29;80.66
51287;BME280;37364;46.974;18.916;2023-06-04T07:47:05;154933.91;;;18.16;78.37
51287;BME280;37364;46.974;18.916;2023-06-04T07:49:36;154950.84;;;18.23;80.66
51287;BME280;37364;46.974;18.916;2023-06-04T07:52:26;154933.91;;;18.16;81.55
51287;BME280;37364;46.974;18.916;2023-06-04T07:54:59;154884.44;;;17.97;80.58
51287;BME280;37364;46.974;18.916;2023-06-04T07:57:30;154874.03;;;17.93;82.81
51287;BME280;37364;46.974;18.916;2023-06-04T08:00:01;154892.28;;;18.00;84.36
51287;BME280;37364;46.974;18.916;2023-06-04T08:02:40;154901.41;;;18.04;87.60
51287;BME280;37364;46.974;18.916;2023-06-04T08:05:10;154810.25;;;17.68;86.55
51287;BME280;37364;46.974;18.916;2023-06-04T08:07:40;154876.69;;;17.94;90.56
51287;BME280;37364;46.974;18.916;2023-06-04T08:10:11;154861.06;;;17.88;90.31
51287;BME280;37364;46.974;18.916;2023-06-04T08:12:41;154855.88;;;17.86;87.62
51287;BME280;37364;46.974;18.916;2023-06-04T08:15:13;154841.50;;;17.80;86.93
51287;BME280;37364;46.974;18.916;2023-06-04T08:17:47;154792.06;;;17.61;87.59
51287;BME280;37364;46.974;18.916;2023-06-04T08:20:17;154769.91;;;17.52;87.36
51287;BME280;37364;46.974;18.916;2023-06-04T08:22:48;154751.75;;;17.45;86.83
51287;BME280;37364;46.974;18.916;2023-06-04T08:25:18;154780.31;;;17.56;89.31
51287;BME280;37364;46.974;18.916;2023-06-04T08:27:49;154879.25;;;17.95;89.64
51287;BME280;37364;46.974;18.916;2023-06-04T08:30:19;154924.78;;;18.13;89.36
51287;BME280;37364;46.974;18.916;2023-06-04T08:32:53;154915.72;;;18.09;88.89
51287;BME280;37364;46.974;18.916;2023-06-04T08:35:23;154946.94;;;18.22;89.87
51287;BME280;37364;46.974;18.916;2023-06-04T08:37:53;154954.72;;;18.25;83.71
51287;BME280;37364;46.974;18.916;2023-06-04T08:40:24;155047.16;;;18.61;85.45
51287;BME280;37364;46.974;18.916;2023-06-04T08:42:55;155043.22;;;18.60;83.93
51287;BME280;37364;46.974;18.916;2023-06-04T08:45:28;155177.38;;;19.12;84.07
51287;BME280;37364;46.974;18.916;2023-06-04T08:48:07;155133.09;;;18.95;81.95
51287;BME280;37364;46.974;18.916;2023-06-04T08:50:42;155107.06;;;18.85;81.01
51287;BME280;37364;46.974;18.916;2023-06-04T08:53:15;155207.31;;;19.24;84.26
51287;BME280;37364;46.974;18.916;2023-06-04T08:55:46;155203.41;;;19.23;81.91
51287;BME280;37364;46.974;18.916;2023-06-04T08:58:20;155268.56;;;19.48;82.93
51287;BME280;37364;46.974;18.916;2023-06-04T09:00:51;155259.44;;;19.45;78.64
51287;BME280;37364;46.974;18.916;2023-06-04T09:03:25;155299.81;;;19.61;79.89
51287;BME280;37364;46.974;18.916;2023-06-04T09:05:58;155355.88;;;19.83;82.65
51287;BME280;37364;46.974;18.916;2023-06-04T09:08:31;155301.09;;;19.61;78.29
51287;BME280;37364;46.974;18.916;2023-06-04T09:11:06;155325.84;;;19.71;81.27
51287;BME280;37364;46.974;18.916;2023-06-04T09:13:38;155449.66;;;20.20;81.53
51287;BME280;37364;46.974;18.916;2023-06-04T09:16:10;155415.78;;;20.06;77.93
51287;BME280;37364;46.974;18.916;2023-06-04T09:18:44;155389.75;;;19.96;81.06
51287;BME280;37364;46.974;18.916;2023-06-04T09:21:14;155418.41;;;20.07;77.85
51287;BME280;37364;46.974;18.916;2023-06-04T09:23:47;155465.31;;;20.26;81.65
51287;BME280;37364;46.974;18.916;2023-06-04T09:26:17;155473.13;;;20.29;80.70
51287;BME280;37364;46.974;18.916;2023-06-04T09:28:48;155439.25;;;20.15;79.90
51287;BME280;37364;46.974;18.916;2023-06-04T09:31:20;155437.97;;;20.15;77.82
51287;BME280;37364;46.974;18.916;2023-06-04T09:33:56;155572.19;;;20.68;77.64
51287;BME280;37364;46.974;18.916;2023-06-04T09:36:30;155490.06;;;20.35;82.74
51287;BME280;37364;46.974;18.916;2023-06-04T09:39:01;155576.09;;;20.69;81.49
51287;BME280;37364;46.974;18.916;2023-06-04T09:41:32;155512.19;;;20.44;77.32
51287;BME280;37364;46.974;18.916;2023-06-04T09:44:03;155630.84;;;20.91;76.61
51287;BME280;37364;46.974;18.916;2023-06-04T09:46:37;155655.63;;;21.01;79.87
51287;BME280;37364;46.974;18.916;2023-06-04T09:49:10;155741.69;;;21.35;78.07
51287;BME280;37364;46.974;18.916;2023-06-04T09:51:46;155534.38;;;20.53;73.50
51287;BME280;37364;46.974;18.916;2023-06-04T09:54:17;155676.47;;;21.09;74.18
51287;BME280;37364;46.974;18.916;2023-06-04T09:56:47;155782.16;;;21.50;69.72
51287;BME280;37364;46.974;18.916;2023-06-04T09:59:17;155909.94;;;22.01;70.09
51287;BME280;37364;46.974;18.916;2023-06-04T10:01:50;155895.59;;;21.95;70.66
51287;BME280;37364;46.974;18.916;2023-06-04T10:04:23;155943.88;;;22.14;68.63
51287;BME280;37364;46.974;18.916;2023-06-04T10:06:54;156020.91;;;22.44;66.39
51287;BME280;37364;46.974;18.916;2023-06-04T10:09:25;155930.81;;;22.09;65.06
51287;BME280;37364;46.974;18.916;2023-06-04T10:11:59;156075.72;;;22.66;67.30
51287;BME280;37364;46.974;18.916;2023-06-04T10:14:35;156195.84;;;23.13;70.59
51287;BME280;37364;46.974;18.916;2023-06-04T10:17:14;156125.25;;;22.85;63.43
51287;BME280;37364;46.974;18.916;2023-06-04T10:19:49;156156.63;;;22.98;61.97
51287;BME280;37364;46.974;18.916;2023-06-04T10:22:21;156215.41;;;23.21;69.99
51287;BME280;37364;46.974;18.916;2023-06-04T10:24:52;156398.22;;;23.93;60.47
51287;BME280;37364;46.974;18.916;2023-06-04T10:27:22;156181.47;;;23.07;56.94
51287;BME280;37364;46.974;18.916;2023-06-04T10:29:53;156390.41;;;23.90;60.00
51287;BME280;37364;46.974;18.916;2023-06-04T10:32:26;156342.03;;;23.71;53.89
51287;BME280;37364;46.974;18.916;2023-06-04T10:34:59;156385.19;;;23.87;54.19
51287;BME280;37364;46.974;18.916;2023-06-04T10:37:35;156249.31;;;23.34;52.11
51287;BME280;37364;46.974;18.916;2023-06-04T10:40:06;156386.47;;;23.88;55.31
51287;BME280;37364;46.974;18.916;2023-06-04T10:42:38;156568.03;;;24.59;56.27
51287;BME280;37364;46.974;18.916;2023-06-04T10:45:09;156526.22;;;24.43;54.97
51287;BME280;37364;46.974;18.916;2023-06-04T10:47:40;156428.25;;;24.04;52.06
51287;BME280;37364;46.974;18.916;2023-06-04T10:50:14;156518.34;;;24.40;56.14
51287;BME280;37364;46.974;18.916;2023-06-04T10:52:52;156569.34;;;24.60;57.37
51287;BME280;37364;46.974;18.916;2023-06-04T10:55:24;156537.94;;;24.47;51.31
51287;BME280;37364;46.974;18.916;2023-06-04T10:57:56;156412.56;;;23.98;49.88
51287;BME280;37364;46.974;18.916;2023-06-04T11:00:36;156398.22;;;23.93;51.95
51287;BME280;37364;46.974;18.916;2023-06-04T11:03:09;156539.25;;;24.48;49.61
51287;BME280;37364;46.974;18.916;2023-06-04T11:05:44;156470.06;;;24.21;47.50
51287;BME280;37364;46.974;18.916;2023-06-04T11:08:14;156537.94;;;24.47;48.58
51287;BME280;37364;46.974;18.916;2023-06-04T11:10:56;156498.75;;;24.32;47.70
51287;BME280;37364;46.974;18.916;2023-06-04T11:13:26;156611.16;;;24.76;46.81
51287;BME280;37364;46.974;18.916;2023-06-04T11:15:57;156660.81;;;24.96;48.36
51287;BME280;37364;46.974;18.916;2023-06-04T11:18:27;156595.50;;;24.70;46.79
51287;BME280;37364;46.974;18.916;2023-06-04T11:21:03;156587.66;;;24.67;48.68
51287;BME280;37364;46.974;18.916;2023-06-04T11:23:34;156600.72;;;24.72;47.10
51287;BME280;37364;46.974;18.916;2023-06-04T11:26:04;156557.59;;;24.55;46.34
51287;BME280;37364;46.974;18.916;2023-06-04T11:28:34;156566.75;;;24.59;45.99
51287;BME280;37364;46.974;18.916;2023-06-04T11:31:09;156754.97;;;25.33;46.54
51287;BME280;37364;46.974;18.916;2023-06-04T11:33:43;156727.50;;;25.22;45.09
51287;BME280;37364;46.974;18.916;2023-06-04T11:36:25;156740.59;;;25.27;42.83
51287;BME280;37364;46.974;18.916;2023-06-04T11:38:57;156527.50;;;24.43;42.46
51287;BME280;37364;46.974;18.916;2023-06-04T11:41:27;156530.16;;;24.44;42.85
51287;BME280;37364;46.974;18.916;2023-06-04T11:44:02;156528.81;;;24.44;45.00
51287;BME280;37364;46.974;18.916;2023-06-04T11:46:40;156543.19;;;24.50;42.31
51287;BME280;37364;46.974;18.916;2023-06-04T11:49:18;156574.56;;;24.62;45.29
51287;BME280;37364;46.974;18.916;2023-06-04T11:52:00;156622.91;;;24.81;44.79
51287;BME280;37364;46.974;18.916;2023-06-04T11:54:37;156802.00;;;25.51;42.67
51287;BME280;37364;46.974;18.916;2023-06-04T11:57:11;156807.22;;;25.53;44.57
51287;BME280;37364;46.974;18.916;2023-06-04T11:59:42;156659.53;;;24.95;41.73
51287;BME280;37364;46.974;18.916;2023-06-04T12:02:23;156799.41;;;25.50;43.43
51287;BME280;37364;46.974;18.916;2023-06-04T12:04:56;156798.06;;;25.50;43.64
51287;BME280;37364;46.974;18.916;2023-06-04T12:07:29;156739.25;;;25.26;43.32
51287;BME280;37364;46.974;18.916;2023-06-04T12:10:11;156706.56;;;25.14;43.43
51287;BME280;37364;46.974;18.916;2023-06-04T12:12:44;156611.16;;;24.76;44.15
51287;BME280;37364;46.974;18.916;2023-06-04T12:15:19;156603.31;;;24.73;44.21
51287;BME280;37364;46.974;18.916;2023-06-04T12:17:56;156591.56;;;24.69;43.22
51287;BME280;37364;46.974;18.916;2023-06-04T12:20:38;156618.97;;;24.79;43.35
51287;BME280;37364;46.974;18.916;2023-06-04T12:23:22;156702.63;;;25.12;44.17
51287;BME280;37364;46.974;18.916;2023-06-04T12:25:52;156832.06;;;25.63;44.46
51287;BME280;37364;46.974;18.916;2023-06-04T12:28:26;156829.47;;;25.62;45.34
51287;BME280;37364;46.974;18.916;2023-06-04T12:31:03;156837.28;;;25.65;44.34
51287;BME280;37364;46.974;18.916;2023-06-04T12:33:38;156796.78;;;25.49;46.08
51287;BME280;37364;46.974;18.916;2023-06-04T12:36:19;156747.09;;;25.30;43.11
51287;BME280;37364;46.974;18.916;2023-06-04T12:39:04;156914.47;;;25.95;46.41
51287;BME280;37364;46.974;18.916;2023-06-04T12:41:44;156909.19;;;25.93;43.35
51287;BME280;37364;46.974;18.916;2023-06-04T12:44:16;156768.00;;;25.38;41.79
51287;BME280;37364;46.974;18.916;2023-06-04T12:46:52;156854.25;;;25.72;42.27
51287;BME280;37364;46.974;18.916;2023-06-04T12:49:26;156896.13;;;25.88;44.34
51287;BME280;37364;46.974;18.916;2023-06-04T12:52:01;156834.69;;;25.64;43.60
51287;BME280;37364;46.974;18.916;2023-06-04T12:54:49;156854.25;;;25.72;44.19
51287;BME280;37364;46.974;18.916;2023-06-04T12:57:24;156903.97;;;25.91;44.48
51287;BME280;37364;46.974;18.916;2023-06-04T13:00:09;156928.81;;;26.01;44.37
51287;BME280;37364;46.974;18.916;2023-06-04T13:02:56;157019.03;;;26.36;49.36
51287;BME280;37364;46.974;18.916;2023-06-04T13:05:31;156987.66;;;26.24;45.30
51287;BME280;37364;46.974;18.916;2023-06-04T13:08:04;156952.38;;;26.10;44.91
51287;BME280;37364;46.974;18.916;2023-06-04T13:10:37;156969.41;;;26.17;43.81